sensor_id;sensor_type;location;lat;lon;timestamp;temperature;humidity
16958;DHT22;8595;52.542;11.974;2023-07-09T00:01:46;22.60;99.90
16958;DHT22;8595;52.542;11.974;2023-07-09T00:04:13;22.60;99.90
16958;DHT22;8595;52.542;11.974;2023-07-09T00:06:40;22.50;99.90
16958;DHT22;8595;52.542;11.974;2023-07-09T00:09:12;22.50;99.90
16958;DHT22;8595;52.542;11.974;2023-07-09T00:11:40;22.50;99.90
16958;DHT22;8595;52.542;11.974;2023-07-09T00:14:09;22.40;99.90
16958;DHT22;8595;52.542;11.974;2023-07-09T00:16:37;22.40;99.90
16958;DHT22;8595;52.542;11.974;2023-07-09T00:19:04;22.40;99.90
16958;DHT22;8595;52.542;11.974;2023-07-09T00:21:31;22.40;99.90
16958;DHT22;8595;52.542;11.974;2023-07-09T00:23:59;22.40;99.90
16958;DHT22;8595;52.542;11.974;2023-07-09T00:26:30;22.30;99.90
16958;DHT22;8595;52.542;11.974;2023-07-09T00:28:57;22.30;99.90
16958;DHT22;8595;52.542;11.974;2023-07-09T00:31:26;22.30;99.90
16958;DHT22;8595;52.542;11.974;2023-07-09T00:33:52;22.30;99.90
16958;DHT22;8595;52.542;11.974;2023-07-09T00:36:26;22.20;99.90
16958;DHT22;8595;52.542;11.974;2023-07-09T00:38:54;22.30;99.90
16958;DHT22;8595;52.542;11.974;2023-07-09T00:41:22;22.20;99.90
16958;DHT22;8595;52.542;11.974;2023-07-09T00:43:50;22.20;99.90
16958;DHT22;8595;52.542;11.974;2023-07-09T00:49:28;22.20;99.90
16958;DHT22;8595;52.542;11.974;2023-07-09T00:51:56;22.10;99.90
16958;DHT22;8595;52.542;11.974;2023-07-09T00:54:30;22.10;99.90
16958;DHT22;8595;52.542;11.974;2023-07-09T00:57:00;22.20;99.90
16958;DHT22;8595;52.542;11.974;2023-07-09T00:59:30;22.10;99.90
16958;DHT22;8595;52.542;11.974;2023-07-09T01:01:58;22.10;99.90
16958;DHT22;8595;52.542;11.974;2023-07-09T01:04:27;22.10;99.90
16958;DHT22;8595;52.542;11.974;2023-07-09T01:06:56;22.10;99.90
16958;DHT22;8595;52.542;11.974;2023-07-09T01:09:23;22.10;99.90
16958;DHT22;8595;52.542;11.974;2023-07-09T01:11:50;22.00;99.90
16958;DHT22;8595;52.542;11.974;2023-07-09T01:14:26;21.90;99.90
16958;DHT22;8595;52.542;11.974;2023-07-09T01:16:58;21.90;99.90
16958;DHT22;8595;52.542;11.974;2023-07-09T01:19:29;21.90;99.90
16958;DHT22;8595;52.542;11.974;2023-07-09T01:21:59;21.90;99.90
16958;DHT22;8595;52.542;11.974;2023-07-09T01:24:50;21.80;99.90
16958;DHT22;8595;52.542;11.974;2023-07-09T01:27:19;21.80;99.90
16958;DHT22;8595;52.542;11.974;2023-07-09T01:29:46;21.90;99.90
16958;DHT22;8595;52.542;11.974;2023-07-09T01:32:15;21.90;99.90
16958;DHT22;8595;52.542;11.974;2023-07-09T01:34:42;21.90;99.90
16958;DHT22;8595;52.542;11.974;2023-07-09T01:37:10;21.90;99.90
16958;DHT22;8595;52.542;11.974;2023-07-09T01:39:37;21.90;99.90
16958;DHT22;8595;52.542;11.974;2023-07-09T01:42:06;21.90;99.90
16958;DHT22;8595;52.542;11.974;2023-07-09T01:44:34;21.80;99.90
16958;DHT22;8595;52.542;11.974;2023-07-09T01:47:01;21.70;99.90
16958;DHT22;8595;52.542;11.974;2023-07-09T01:49:29;21.60;99.90
16958;DHT22;8595;52.542;11.974;2023-07-09T01:51:58;21.60;99.90
16958;DHT22;8595;52.542;11.974;2023-07-09T01:54:28;21.60;99.90
16958;DHT22;8595;52.542;11.974;2023-07-09T01:57:00;21.50;99.90
16958;DHT22;8595;52.542;11.974;2023-07-09T01:59:38;21.50;99.90
16958;DHT22;8595;52.542;11.974;2023-07-09T02:02:06;21.50;99.90
16958;DHT22;8595;52.542;11.974;2023-07-09T02:04:33;21.50;99.90
16958;DHT22;8595;52.542;11.974;2023-07-09T02:07:00;21.40;99.90
16958;DHT22;8595;52.542;11.974;2023-07-09T02:09:28;21.40;99.90
16958;DHT22;8595;52.542;11.974;2023-07-09T02:11:54;21.30;99.90
16958;DHT22;8595;52.542;11.974;2023-07-09T02:14:21;21.30;99.90
16958;DHT22;8595;52.542;11.974;2023-07-09T02:16:48;21.30;99.90
16958;DHT22;8595;52.542;11.974;2023-07-09T02:19:15;21.30;99.90
16958;DHT22;8595;52.542;11.974;2023-07-09T02:21:42;21.20;99.90
16958;DHT22;8595;52.542;11.974;2023-07-09T02:24:09;21.20;99.90
16958;DHT22;8595;52.542;11.974;2023-07-09T02:26:37;21.10;99.90
16958;DHT22;8595;52.542;11.974;2023-07-09T02:29:03;21.10;99.90
16958;DHT22;8595;52.542;11.974;2023-07-09T02:31:30;21.10;99.90
16958;DHT22;8595;52.542;11.974;2023-07-09T02:33:59;21.10;99.90
16958;DHT22;8595;52.542;11.974;2023-07-09T02:36:26;21.00;99.90
16958;DHT22;8595;52.542;11.974;2023-07-09T02:38:53;21.00;99.90
16958;DHT22;8595;52.542;11.974;2023-07-09T02:41:19;21.00;99.90
16958;DHT22;8595;52.542;11.974;2023-07-09T02:43:47;20.90;99.90
16958;DHT22;8595;52.542;11.974;2023-07-09T02:46:14;20.90;99.90
16958;DHT22;8595;52.542;11.974;2023-07-09T02:48:40;20.90;99.90
16958;DHT22;8595;52.542;11.974;2023-07-09T02:51:07;20.90;99.90
16958;DHT22;8595;52.542;11.974;2023-07-09T02:53:34;20.90;99.90
16958;DHT22;8595;52.542;11.974;2023-07-09T02:56:01;20.80;99.90
16958;DHT22;8595;52.542;11.974;2023-07-09T02:58:28;20.80;99.90
16958;DHT22;8595;52.542;11.974;2023-07-09T03:00:56;20.70;99.90
16958;DHT22;8595;52.542;11.974;2023-07-09T03:03:23;20.70;99.90
16958;DHT22;8595;52.542;11.974;2023-07-09T03:05:49;20.70;99.90
16958;DHT22;8595;52.542;11.974;2023-07-09T03:08:16;20.70;99.90
16958;DHT22;8595;52.542;11.974;2023-07-09T03:10:43;20.70;99.90
16958;DHT22;8595;52.542;11.974;2023-07-09T03:13:09;20.70;99.90
16958;DHT22;8595;52.542;11.974;2023-07-09T03:15:36;20.60;99.90
16958;DHT22;8595;52.542;11.974;2023-07-09T03:18:04;20.60;99.90
16958;DHT22;8595;52.542;11.974;2023-07-09T03:20:31;20.60;99.90
16958;DHT22;8595;52.542;11.974;2023-07-09T03:22:58;20.60;99.90
16958;DHT22;8595;52.542;11.974;2023-07-09T03:25:25;20.50;99.90
16958;DHT22;8595;52.542;11.974;2023-07-09T03:27:52;20.50;99.90
16958;DHT22;8595;52.542;11.974;2023-07-09T03:30:18;20.50;99.90
16958;DHT22;8595;52.542;11.974;2023-07-09T03:32:45;20.60;99.90
16958;DHT22;8595;52.542;11.974;2023-07-09T03:35:13;20.50;99.90
16958;DHT22;8595;52.542;11.974;2023-07-09T03:37:41;20.50;99.90
16958;DHT22;8595;52.542;11.974;2023-07-09T03:40:10;20.50;99.90
16958;DHT22;8595;52.542;11.974;2023-07-09T03:42:37;20.50;99.90
16958;DHT22;8595;52.542;11.974;2023-07-09T03:45:04;20.50;99.90
16958;DHT22;8595;52.542;11.974;2023-07-09T03:47:31;20.50;99.90
16958;DHT22;8595;52.542;11.974;2023-07-09T03:49:58;20.60;99.90
16958;DHT22;8595;52.542;11.974;2023-07-09T03:52:26;20.60;99.90
16958;DHT22;8595;52.542;11.974;2023-07-09T03:54:52;20.60;99.90
16958;DHT22;8595;52.542;11.974;2023-07-09T03:57:19;20.60;99.90
16958;DHT22;8595;52.542;11.974;2023-07-09T03:59:46;20.60;99.90
16958;DHT22;8595;52.542;11.974;2023-07-09T04:02:13;20.60;99.90
16958;DHT22;8595;52.542;11.974;2023-07-09T04:04:40;20.60;99.90
16958;DHT22;8595;52.542;11.974;2023-07-09T04:07:06;20.50;99.90
16958;DHT22;8595;52.542;11.974;2023-07-09T04:09:35;20.60;99.90
16958;DHT22;8595;52.542;11.974;2023-07-09T04:12:02;20.60;99.90
16958;DHT22;8595;52.542;11.974;2023-07-09T04:14:29;20.50;99.90
16958;DHT22;8595;52.542;11.974;2023-07-09T04:16:56;20.60;99.90
16958;DHT22;8595;52.542;11.974;2023-07-09T04:19:23;20.50;99.90
16958;DHT22;8595;52.542;11.974;2023-07-09T04:21:50;20.50;99.90
16958;DHT22;8595;52.542;11.974;2023-07-09T04:24:18;20.50;99.90
16958;DHT22;8595;52.542;11.974;2023-07-09T04:26:46;20.50;99.90
16958;DHT22;8595;52.542;11.974;2023-07-09T04:29:14;20.50;99.90
16958;DHT22;8595;52.542;11.974;2023-07-09T04:31:41;20.50;99.90
16958;DHT22;8595;52.542;11.974;2023-07-09T04:34:08;20.50;99.90
16958;DHT22;8595;52.542;11.974;2023-07-09T04:36:35;20.50;99.90
16958;DHT22;8595;52.542;11.974;2023-07-09T04:39:02;20.50;99.90
16958;DHT22;8595;52.542;11.974;2023-07-09T04:41:29;20.60;99.90
16958;DHT22;8595;52.542;11.974;2023-07-09T04:43:57;20.50;99.90
16958;DHT22;8595;52.542;11.974;2023-07-09T04:46:23;20.60;99.90
16958;DHT22;8595;52.542;11.974;2023-07-09T04:48:50;20.60;99.90
16958;DHT22;8595;52.542;11.974;2023-07-09T04:51:17;20.60;99.90
16958;DHT22;8595;52.542;11.974;2023-07-09T04:53:44;20.60;99.90
16958;DHT22;8595;52.542;11.974;2023-07-09T04:56:11;20.60;99.90
16958;DHT22;8595;52.542;11.974;2023-07-09T04:58:38;20.60;99.90
16958;DHT22;8595;52.542;11.974;2023-07-09T05:01:06;20.60;99.90
16958;DHT22;8595;52.542;11.974;2023-07-09T05:03:33;20.60;99.90
16958;DHT22;8595;52.542;11.974;2023-07-09T05:05:59;20.60;99.90
16958;DHT22;8595;52.542;11.974;2023-07-09T05:08:26;20.80;99.90
16958;DHT22;8595;52.542;11.974;2023-07-09T05:10:54;20.80;99.90
16958;DHT22;8595;52.542;11.974;2023-07-09T05:13:20;20.70;99.90
16958;DHT22;8595;52.542;11.974;2023-07-09T05:15:48;20.80;99.90
16958;DHT22;8595;52.542;11.974;2023-07-09T05:18:17;20.80;99.90
16958;DHT22;8595;52.542;11.974;2023-07-09T05:20:46;20.80;99.90
16958;DHT22;8595;52.542;11.974;2023-07-09T05:23:13;21.00;99.90
16958;DHT22;8595;52.542;11.974;2023-07-09T05:25:40;21.00;99.90
16958;DHT22;8595;52.542;11.974;2023-07-09T05:28:07;21.00;99.90
16958;DHT22;8595;52.542;11.974;2023-07-09T05:30:34;21.00;99.90
16958;DHT22;8595;52.542;11.974;2023-07-09T05:33:02;21.00;99.90
16958;DHT22;8595;52.542;11.974;2023-07-09T05:35:30;21.10;99.90
16958;DHT22;8595;52.542;11.974;2023-07-09T05:37:56;21.10;99.90
16958;DHT22;8595;52.542;11.974;2023-07-09T05:40:23;21.20;99.90
16958;DHT22;8595;52.542;11.974;2023-07-09T05:42:50;21.20;99.90
16958;DHT22;8595;52.542;11.974;2023-07-09T05:45:17;21.30;99.90
16958;DHT22;8595;52.542;11.974;2023-07-09T05:47:43;21.30;99.90
16958;DHT22;8595;52.542;11.974;2023-07-09T05:50:10;21.30;99.90
16958;DHT22;8595;52.542;11.974;2023-07-09T05:52:38;21.40;99.90
16958;DHT22;8595;52.542;11.974;2023-07-09T05:55:06;21.40;99.90
16958;DHT22;8595;52.542;11.974;2023-07-09T05:57:33;21.40;99.90
16958;DHT22;8595;52.542;11.974;2023-07-09T06:00:00;21.50;99.90
16958;DHT22;8595;52.542;11.974;2023-07-09T06:02:27;21.60;99.90
16958;DHT22;8595;52.542;11.974;2023-07-09T06:04:54;21.70;99.90
16958;DHT22;8595;52.542;11.974;2023-07-09T06:07:21;21.80;99.90
16958;DHT22;8595;52.542;11.974;2023-07-09T06:09:49;21.90;99.90
16958;DHT22;8595;52.542;11.974;2023-07-09T06:12:18;21.80;99.90
16958;DHT22;8595;52.542;11.974;2023-07-09T06:14:45;22.10;99.90
16958;DHT22;8595;52.542;11.974;2023-07-09T06:17:11;22.20;99.90
16958;DHT22;8595;52.542;11.974;2023-07-09T06:19:38;22.30;99.90
16958;DHT22;8595;52.542;11.974;2023-07-09T06:22:05;22.30;99.90
16958;DHT22;8595;52.542;11.974;2023-07-09T06:24:33;22.40;99.90
16958;DHT22;8595;52.542;11.974;2023-07-09T06:27:01;22.50;99.90
16958;DHT22;8595;52.542;11.974;2023-07-09T06:29:28;22.50;99.90
16958;DHT22;8595;52.542;11.974;2023-07-09T06:31:55;22.60;99.90
16958;DHT22;8595;52.542;11.974;2023-07-09T06:34:21;22.60;99.90
16958;DHT22;8595;52.542;11.974;2023-07-09T06:36:48;22.70;99.90
16958;DHT22;8595;52.542;11.974;2023-07-09T06:39:15;22.70;99.90
16958;DHT22;8595;52.542;11.974;2023-07-09T06:41:42;22.80;99.90
16958;DHT22;8595;52.542;11.974;2023-07-09T06:44:11;22.90;99.90
16958;DHT22;8595;52.542;11.974;2023-07-09T06:46:37;22.90;99.90
16958;DHT22;8595;52.542;11.974;2023-07-09T06:49:04;22.90;99.90
16958;DHT22;8595;52.542;11.974;2023-07-09T06:51:32;23.10;99.90
16958;DHT22;8595;52.542;11.974;2023-07-09T06:53:59;23.30;99.90
16958;DHT22;8595;52.542;11.974;2023-07-09T06:56:26;23.40;99.90
16958;DHT22;8595;52.542;11.974;2023-07-09T06:58:52;23.40;99.90
16958;DHT22;8595;52.542;11.974;2023-07-09T07:01:20;23.50;99.90
16958;DHT22;8595;52.542;11.974;2023-07-09T07:03:47;23.50;99.90
16958;DHT22;8595;52.542;11.974;2023-07-09T07:06:14;23.70;99.90
16958;DHT22;8595;52.542;11.974;2023-07-09T07:08:42;23.70;99.90
16958;DHT22;8595;52.542;11.974;2023-07-09T07:11:08;23.70;99.90
16958;DHT22;8595;52.542;11.974;2023-07-09T07:13:37;23.90;99.90
16958;DHT22;8595;52.542;11.974;2023-07-09T07:16:05;24.00;99.90
16958;DHT22;8595;52.542;11.974;2023-07-09T07:18:34;24.20;99.90
16958;DHT22;8595;52.542;11.974;2023-07-09T07:21:01;24.40;99.90
16958;DHT22;8595;52.542;11.974;2023-07-09T07:23:28;24.50;99.90
16958;DHT22;8595;52.542;11.974;2023-07-09T07:25:55;24.70;99.90
16958;DHT22;8595;52.542;11.974;2023-07-09T07:28:22;24.80;99.90
16958;DHT22;8595;52.542;11.974;2023-07-09T07:30:58;25.00;99.90
16958;DHT22;8595;52.542;11.974;2023-07-09T07:33:25;25.20;99.90
16958;DHT22;8595;52.542;11.974;2023-07-09T07:35:53;25.20;99.90
16958;DHT22;8595;52.542;11.974;2023-07-09T07:38:20;25.30;99.90
16958;DHT22;8595;52.542;11.974;2023-07-09T07:40:47;25.40;99.90
16958;DHT22;8595;52.542;11.974;2023-07-09T07:43:14;25.50;99.90
16958;DHT22;8595;52.542;11.974;2023-07-09T07:45:41;25.60;99.90
16958;DHT22;8595;52.542;11.974;2023-07-09T07:48:08;25.80;99.90
16958;DHT22;8595;52.542;11.974;2023-07-09T07:50:35;26.10;99.90
16958;DHT22;8595;52.542;11.974;2023-07-09T07:53:05;26.20;99.90
16958;DHT22;8595;52.542;11.974;2023-07-09T07:55:33;26.30;99.90
16958;DHT22;8595;52.542;11.974;2023-07-09T07:58:00;26.50;99.90
16958;DHT22;8595;52.542;11.974;2023-07-09T08:00:29;26.60;99.90
16958;DHT22;8595;52.542;11.974;2023-07-09T08:02:56;26.80;99.90
16958;DHT22;8595;52.542;11.974;2023-07-09T08:05:23;26.90;99.90
16958;DHT22;8595;52.542;11.974;2023-07-09T08:07:50;27.10;99.90
16958;DHT22;8595;52.542;11.974;2023-07-09T08:10:18;27.20;99.90
16958;DHT22;8595;52.542;11.974;2023-07-09T08:12:45;27.20;99.90
16958;DHT22;8595;52.542;11.974;2023-07-09T08:15:12;27.40;99.90
16958;DHT22;8595;52.542;11.974;2023-07-09T08:17:38;27.60;99.90
16958;DHT22;8595;52.542;11.974;2023-07-09T08:20:06;27.70;99.90
16958;DHT22;8595;52.542;11.974;2023-07-09T08:22:33;27.90;99.90
16958;DHT22;8595;52.542;11.974;2023-07-09T08:25:00;28.00;99.90
16958;DHT22;8595;52.542;11.974;2023-07-09T08:27:28;28.10;99.90
16958;DHT22;8595;52.542;11.974;2023-07-09T08:29:55;28.30;99.90
16958;DHT22;8595;52.542;11.974;2023-07-09T08:32:22;28.30;99.90
16958;DHT22;8595;52.542;11.974;2023-07-09T08:34:49;28.40;99.90
16958;DHT22;8595;52.542;11.974;2023-07-09T08:37:15;28.60;99.90
16958;DHT22;8595;52.542;11.974;2023-07-09T08:39:42;28.80;99.90
16958;DHT22;8595;52.542;11.974;2023-07-09T08:42:11;29.00;99.90
16958;DHT22;8595;52.542;11.974;2023-07-09T08:45:09;29.00;99.90
16958;DHT22;8595;52.542;11.974;2023-07-09T08:47:46;29.00;99.90
16958;DHT22;8595;52.542;11.974;2023-07-09T08:50:16;29.10;99.90
16958;DHT22;8595;52.542;11.974;2023-07-09T08:52:47;29.30;99.90
16958;DHT22;8595;52.542;11.974;2023-07-09T08:55:17;29.40;99.90
16958;DHT22;8595;52.542;11.974;2023-07-09T08:57:45;29.60;99.90
16958;DHT22;8595;52.542;11.974;2023-07-09T09:00:17;29.70;99.90
16958;DHT22;8595;52.542;11.974;2023-07-09T09:02:49;29.90;99.90
16958;DHT22;8595;52.542;11.974;2023-07-09T09:05:19;30.00;99.90
16958;DHT22;8595;52.542;11.974;2023-07-09T09:07:51;30.30;99.90
16958;DHT22;8595;52.542;11.974;2023-07-09T09:10:31;30.50;99.90
16958;DHT22;8595;52.542;11.974;2023-07-09T09:13:06;30.80;99.90
16958;DHT22;8595;52.542;11.974;2023-07-09T09:15:37;31.50;99.90
16958;DHT22;8595;52.542;11.974;2023-07-09T09:18:18;32.40;99.90
16958;DHT22;8595;52.542;11.974;2023-07-09T09:20:48;33.30;99.90
16958;DHT22;8595;52.542;11.974;2023-07-09T09:23:18;33.90;99.90
16958;DHT22;8595;52.542;11.974;2023-07-09T09:25:48;34.40;98.90
16958;DHT22;8595;52.542;11.974;2023-07-09T09:28:18;35.20;98.50
16958;DHT22;8595;52.542;11.974;2023-07-09T09:30:49;35.50;94.70
16958;DHT22;8595;52.542;11.974;2023-07-09T09:33:17;35.70;92.70
16958;DHT22;8595;52.542;11.974;2023-07-09T09:35:44;35.60;91.80
16958;DHT22;8595;52.542;11.974;2023-07-09T09:38:17;35.80;90.50
16958;DHT22;8595;52.542;11.974;2023-07-09T09:40:46;36.10;87.90
16958;DHT22;8595;52.542;11.974;2023-07-09T09:43:15;36.40;89.80
16958;DHT22;8595;52.542;11.974;2023-07-09T09:45:44;36.80;88.90
16958;DHT22;8595;52.542;11.974;2023-07-09T09:48:16;37.10;87.00
16958;DHT22;8595;52.542;11.974;2023-07-09T09:50:45;37.40;84.40
16958;DHT22;8595;52.542;11.974;2023-07-09T09:53:19;37.60;79.10
16958;DHT22;8595;52.542;11.974;2023-07-09T09:55:47;37.30;77.30
16958;DHT22;8595;52.542;11.974;2023-07-09T09:58:16;37.30;77.00
16958;DHT22;8595;52.542;11.974;2023-07-09T10:00:49;37.40;77.80
16958;DHT22;8595;52.542;11.974;2023-07-09T10:03:19;37.70;72.90
16958;DHT22;8595;52.542;11.974;2023-07-09T10:05:51;37.60;74.60
16958;DHT22;8595;52.542;11.974;2023-07-09T10:08:28;37.80;72.50
16958;DHT22;8595;52.542;11.974;2023-07-09T10:11:06;37.60;69.40
16958;DHT22;8595;52.542;11.974;2023-07-09T10:13:38;37.60;70.30
16958;DHT22;8595;52.542;11.974;2023-07-09T10:16:08;37.70;68.70
16958;DHT22;8595;52.542;11.974;2023-07-09T10:18:48;37.90;68.80
16958;DHT22;8595;52.542;11.974;2023-07-09T10:21:22;38.30;68.90
16958;DHT22;8595;52.542;11.974;2023-07-09T10:23:55;38.60;69.30
16958;DHT22;8595;52.542;11.974;2023-07-09T10:26:30;38.70;67.60
16958;DHT22;8595;52.542;11.974;2023-07-09T10:29:13;38.80;67.60
16958;DHT22;8595;52.542;11.974;2023-07-09T10:31:49;38.60;67.40
16958;DHT22;8595;52.542;11.974;2023-07-09T10:34:26;38.60;65.60
16958;DHT22;8595;52.542;11.974;2023-07-09T10:37:11;39.00;66.10
16958;DHT22;8595;52.542;11.974;2023-07-09T10:39:47;39.20;64.90
16958;DHT22;8595;52.542;11.974;2023-07-09T10:42:20;39.40;65.10
16958;DHT22;8595;52.542;11.974;2023-07-09T10:44:54;39.60;65.30
16958;DHT22;8595;52.542;11.974;2023-07-09T10:47:27;40.00;63.80
16958;DHT22;8595;52.542;11.974;2023-07-09T10:49:57;40.30;63.80
16958;DHT22;8595;52.542;11.974;2023-07-09T10:52:27;40.30;62.20
16958;DHT22;8595;52.542;11.974;2023-07-09T10:54:59;40.00;61.10
16958;DHT22;8595;52.542;11.974;2023-07-09T10:57:30;40.00;62.20
16958;DHT22;8595;52.542;11.974;2023-07-09T10:59:58;40.10;59.40
16958;DHT22;8595;52.542;11.974;2023-07-09T11:02:26;39.90;59.80
16958;DHT22;8595;52.542;11.974;2023-07-09T11:04:56;39.80;60.90
16958;DHT22;8595;52.542;11.974;2023-07-09T11:07:29;39.60;60.90
16958;DHT22;8595;52.542;11.974;2023-07-09T11:09:58;39.50;60.20
16958;DHT22;8595;52.542;11.974;2023-07-09T11:12:29;39.60;59.80
16958;DHT22;8595;52.542;11.974;2023-07-09T11:15:00;40.00;60.80
16958;DHT22;8595;52.542;11.974;2023-07-09T11:17:29;40.00;58.80
16958;DHT22;8595;52.542;11.974;2023-07-09T11:19:59;40.20;59.40
16958;DHT22;8595;52.542;11.974;2023-07-09T11:22:35;40.30;59.40
16958;DHT22;8595;52.542;11.974;2023-07-09T11:25:08;40.40;58.20
16958;DHT22;8595;52.542;11.974;2023-07-09T11:27:45;39.90;59.30
16958;DHT22;8595;52.542;11.974;2023-07-09T11:30:23;40.10;58.60
16958;DHT22;8595;52.542;11.974;2023-07-09T11:32:53;39.90;58.20
16958;DHT22;8595;52.542;11.974;2023-07-09T11:35:23;40.00;60.30
16958;DHT22;8595;52.542;11.974;2023-07-09T11:37:51;40.00;58.30
16958;DHT22;8595;52.542;11.974;2023-07-09T11:40:20;40.00;59.30
16958;DHT22;8595;52.542;11.974;2023-07-09T11:42:52;39.30;57.80
16958;DHT22;8595;52.542;11.974;2023-07-09T11:45:22;39.60;58.60
16958;DHT22;8595;52.542;11.974;2023-07-09T11:47:54;40.00;57.90
16958;DHT22;8595;52.542;11.974;2023-07-09T11:50:29;40.30;60.40
16958;DHT22;8595;52.542;11.974;2023-07-09T11:52:59;40.50;60.00
16958;DHT22;8595;52.542;11.974;2023-07-09T11:55:28;40.70;58.90
16958;DHT22;8595;52.542;11.974;2023-07-09T11:57:56;40.50;60.70
16958;DHT22;8595;52.542;11.974;2023-07-09T12:00:26;40.60;59.20
16958;DHT22;8595;52.542;11.974;2023-07-09T12:02:55;40.40;59.90
16958;DHT22;8595;52.542;11.974;2023-07-09T12:05:28;40.50;59.00
16958;DHT22;8595;52.542;11.974;2023-07-09T12:07:56;40.50;59.40
16958;DHT22;8595;52.542;11.974;2023-07-09T12:10:28;40.40;59.20
16958;DHT22;8595;52.542;11.974;2023-07-09T12:12:56;40.30;61.10
16958;DHT22;8595;52.542;11.974;2023-07-09T12:15:25;40.40;59.60
16958;DHT22;8595;52.542;11.974;2023-07-09T12:17:54;40.60;59.80
16958;DHT22;8595;52.542;11.974;2023-07-09T12:20:21;40.80;59.80
16958;DHT22;8595;52.542;11.974;2023-07-09T12:22:50;40.90;59.30
16958;DHT22;8595;52.542;11.974;2023-07-09T12:25:22;41.20;57.90
16958;DHT22;8595;52.542;11.974;2023-07-09T12:27:49;41.40;58.70
16958;DHT22;8595;52.542;11.974;2023-07-09T12:30:16;41.30;58.10
16958;DHT22;8595;52.542;11.974;2023-07-09T12:32:44;41.10;58.10
16958;DHT22;8595;52.542;11.974;2023-07-09T12:35:13;40.90;58.40
16958;DHT22;8595;52.542;11.974;2023-07-09T12:37:42;41.30;58.70
16958;DHT22;8595;52.542;11.974;2023-07-09T12:40:16;41.50;58.70
16958;DHT22;8595;52.542;11.974;2023-07-09T12:42:44;41.20;57.30
16958;DHT22;8595;52.542;11.974;2023-07-09T12:45:15;41.10;57.40
16958;DHT22;8595;52.542;11.974;2023-07-09T12:47:43;40.90;57.40
16958;DHT22;8595;52.542;11.974;2023-07-09T12:50:27;41.20;58.20
16958;DHT22;8595;52.542;11.974;2023-07-09T12:52:59;41.40;58.00
16958;DHT22;8595;52.542;11.974;2023-07-09T12:55:30;41.40;57.50
16958;DHT22;8595;52.542;11.974;2023-07-09T12:58:10;41.40;56.30
16958;DHT22;8595;52.542;11.974;2023-07-09T13:00:37;41.50;57.20
16958;DHT22;8595;52.542;11.974;2023-07-09T13:03:13;42.00;57.70
16958;DHT22;8595;52.542;11.974;2023-07-09T13:05:52;42.10;57.60
16958;DHT22;8595;52.542;11.974;2023-07-09T13:08:19;41.70;56.80
16958;DHT22;8595;52.542;11.974;2023-07-09T13:10:47;41.40;56.90
16958;DHT22;8595;52.542;11.974;2023-07-09T13:13:17;41.20;57.90
16958;DHT22;8595;52.542;11.974;2023-07-09T13:15:48;41.40;57.90
16958;DHT22;8595;52.542;11.974;2023-07-09T13:18:15;41.10;57.00
16958;DHT22;8595;52.542;11.974;2023-07-09T13:20:43;41.30;56.90
16958;DHT22;8595;52.542;11.974;2023-07-09T13:23:16;41.50;56.50
16958;DHT22;8595;52.542;11.974;2023-07-09T13:25:43;41.40;55.70
16958;DHT22;8595;52.542;11.974;2023-07-09T13:28:16;41.50;55.80
16958;DHT22;8595;52.542;11.974;2023-07-09T13:30:45;41.80;56.10
16958;DHT22;8595;52.542;11.974;2023-07-09T13:33:12;41.90;56.10
16958;DHT22;8595;52.542;11.974;2023-07-09T13:35:39;42.00;56.10
16958;DHT22;8595;52.542;11.974;2023-07-09T13:38:12;42.20;56.60
16958;DHT22;8595;52.542;11.974;2023-07-09T13:40:40;42.60;56.70
16958;DHT22;8595;52.542;11.974;2023-07-09T13:43:10;42.70;56.70
16958;DHT22;8595;52.542;11.974;2023-07-09T13:45:40;42.80;56.10
16958;DHT22;8595;52.542;11.974;2023-07-09T13:48:13;43.00;55.90
16958;DHT22;8595;52.542;11.974;2023-07-09T13:50:42;42.70;56.10
16958;DHT22;8595;52.542;11.974;2023-07-09T13:53:13;42.60;55.80
16958;DHT22;8595;52.542;11.974;2023-07-09T13:55:40;42.80;56.20
16958;DHT22;8595;52.542;11.974;2023-07-09T13:58:09;43.10;56.10
16958;DHT22;8595;52.542;11.974;2023-07-09T14:00:36;42.90;55.50
16958;DHT22;8595;52.542;11.974;2023-07-09T14:03:10;42.50;55.60
16958;DHT22;8595;52.542;11.974;2023-07-09T14:05:39;42.10;55.80
16958;DHT22;8595;52.542;11.974;2023-07-09T14:08:07;41.50;54.80
16958;DHT22;8595;52.542;11.974;2023-07-09T14:10:34;41.30;56.10
16958;DHT22;8595;52.542;11.974;2023-07-09T14:13:01;41.60;58.10
16958;DHT22;8595;52.542;11.974;2023-07-09T14:15:28;42.10;56.20
16958;DHT22;8595;52.542;11.974;2023-07-09T14:17:55;42.40;56.70
16958;DHT22;8595;52.542;11.974;2023-07-09T14:20:24;42.50;56.80
16958;DHT22;8595;52.542;11.974;2023-07-09T14:22:51;42.40;57.30
16958;DHT22;8595;52.542;11.974;2023-07-09T14:25:20;42.50;56.70
16958;DHT22;8595;52.542;11.974;2023-07-09T14:27:48;42.40;55.80
16958;DHT22;8595;52.542;11.974;2023-07-09T14:30:17;42.30;56.20
16958;DHT22;8595;52.542;11.974;2023-07-09T14:32:45;42.10;55.90
16958;DHT22;8595;52.542;11.974;2023-07-09T14:35:15;42.20;55.30
16958;DHT22;8595;52.542;11.974;2023-07-09T14:37:45;42.50;54.80
16958;DHT22;8595;52.542;11.974;2023-07-09T14:40:12;42.60;54.80
16958;DHT22;8595;52.542;11.974;2023-07-09T14:42:40;42.80;55.10
16958;DHT22;8595;52.542;11.974;2023-07-09T14:45:21;42.20;55.40
16958;DHT22;8595;52.542;11.974;2023-07-09T14:47:49;42.40;55.80
16958;DHT22;8595;52.542;11.974;2023-07-09T14:50:16;42.00;55.10
16958;DHT22;8595;52.542;11.974;2023-07-09T14:52:45;41.80;55.40
16958;DHT22;8595;52.542;11.974;2023-07-09T14:55:18;41.90;56.30
16958;DHT22;8595;52.542;11.974;2023-07-09T14:57:46;41.70;55.30
16958;DHT22;8595;52.542;11.974;2023-07-09T15:00:14;41.50;54.90
16958;DHT22;8595;52.542;11.974;2023-07-09T15:02:43;41.60;55.20
16958;DHT22;8595;52.542;11.974;2023-07-09T15:05:15;41.70;55.10
16958;DHT22;8595;52.542;11.974;2023-07-09T15:07:44;42.00;55.20
16958;DHT22;8595;52.542;11.974;2023-07-09T15:10:16;42.10;56.50
16958;DHT22;8595;52.542;11.974;2023-07-09T15:12:44;42.00;55.50
16958;DHT22;8595;52.542;11.974;2023-07-09T15:15:22;42.00;56.10
16958;DHT22;8595;52.542;11.974;2023-07-09T15:17:50;41.80;56.50
16958;DHT22;8595;52.542;11.974;2023-07-09T15:20:20;41.50;55.90
16958;DHT22;8595;52.542;11.974;2023-07-09T15:22:50;41.60;55.80
16958;DHT22;8595;52.542;11.974;2023-07-09T15:25:19;41.60;56.30
16958;DHT22;8595;52.542;11.974;2023-07-09T15:27:46;41.60;56.50
16958;DHT22;8595;52.542;11.974;2023-07-09T15:30:15;41.70;57.90
16958;DHT22;8595;52.542;11.974;2023-07-09T15:32:44;41.50;57.30
16958;DHT22;8595;52.542;11.974;2023-07-09T15:35:11;41.60;57.10
16958;DHT22;8595;52.542;11.974;2023-07-09T15:37:38;41.80;56.40
16958;DHT22;8595;52.542;11.974;2023-07-09T15:40:17;41.20;57.60
16958;DHT22;8595;52.542;11.974;2023-07-09T15:42:45;40.80;56.40
16958;DHT22;8595;52.542;11.974;2023-07-09T15:45:14;40.60;57.80